Time;durP1;ratioP1;P1;durP2;ratioP2;P2;SDS_P1;SDS_P2;PMS_P1;PMS_P2;Temp;Humidity;BMP_temperature;BMP_pressure;BME280_temperature;BME280_humidity;BME280_pressure;Samples;Min_cycle;Max_cycle;Signal;HPM_P1;HPM_P2
2022/06/28 00:01:39;;;;;;;7.07;3.15;;;11.40;99.90;;;;;;7344014;32;20700;-59
2022/06/28 00:05:41;;;;;;;7.82;3.05;;;11.30;99.90;;;;;;7344607;32;20119;-59
2022/06/28 00:09:43;;;;;;;3.25;2.92;;;11.30;99.90;;;;;;7347718;32;20589;-60
2022/06/28 00:13:44;;;;;;;8.63;3.45;;;11.30;99.90;;;;;;7344931;32;20166;-61
2022/06/28 00:17:46;;;;;;;6.00;3.08;;;11.20;99.90;;;;;;7343590;32;20297;-62
2022/06/28 00:21:49;;;;;;;7.85;3.50;;;11.20;99.90;;;;;;7341006;32;20839;-60
2022/06/28 00:25:50;;;;;;;7.25;3.45;;;11.20;99.90;;;;;;7344008;32;20365;-60
2022/06/28 00:29:52;;;;;;;11.05;2.92;;;11.10;99.90;;;;;;7347521;32;20206;-60
2022/06/28 00:33:54;;;;;;;15.70;3.53;;;11.10;99.90;;;;;;7340757;32;20601;-61
2022/06/28 00:37:55;;;;;;;5.90;3.20;;;11.10;99.90;;;;;;7341051;32;20130;-61
2022/06/28 00:41:57;;;;;;;5.55;2.78;;;11.00;99.90;;;;;;7339197;32;20147;-60
2022/06/28 00:45:59;;;;;;;4.47;2.75;;;11.00;99.90;;;;;;7341303;32;21102;-60
2022/06/28 00:50:02;;;;;;;10.05;2.95;;;11.00;99.90;;;;;;7341291;32;20158;-59
2022/06/28 00:54:03;;;;;;;8.52;3.55;;;11.00;99.90;;;;;;7338160;32;20685;-60
2022/06/28 00:58:05;;;;;;;6.45;3.12;;;10.90;99.90;;;;;;7342268;32;20111;-60
2022/06/28 01:02:07;;;;;;;15.05;3.53;;;10.90;99.90;;;;;;7340501;32;20150;-60
2022/06/28 01:06:09;;;;;;;13.40;3.72;;;10.90;99.90;;;;;;7339408;32;20114;-60
2022/06/28 01:10:11;;;;;;;6.60;3.60;;;10.80;99.90;;;;;;7341560;32;20123;-61
2022/06/28 01:14:13;;;;;;;6.00;4.43;;;10.80;99.90;;;;;;7338739;32;20145;-59
2022/06/28 01:18:16;;;;;;;10.80;3.70;;;10.80;99.90;;;;;;7339843;32;20209;-60
2022/06/28 01:22:18;;;;;;;7.90;3.72;;;10.80;99.90;;;;;;7338698;32;20482;-60
2022/06/28 01:26:20;;;;;;;12.05;3.58;;;10.80;99.90;;;;;;7345182;32;20225;-59
2022/06/28 01:30:23;;;;;;;4.97;3.55;;;10.70;99.90;;;;;;7341579;32;20205;-61
2022/06/28 01:34:24;;;;;;;7.32;3.53;;;10.70;99.90;;;;;;7337788;32;20104;-60
2022/06/28 01:38:26;;;;;;;11.68;3.75;;;10.70;99.90;;;;;;7343220;32;20194;-60
2022/06/28 01:42:29;;;;;;;12.43;4.05;;;10.60;99.90;;;;;;7343584;32;20122;-60
2022/06/28 01:46:32;;;;;;;5.78;3.92;;;10.60;99.90;;;;;;7340968;32;20206;-59
2022/06/28 01:50:34;;;;;;;11.48;4.10;;;10.70;99.90;;;;;;7342634;32;20104;-60
2022/06/28 01:54:35;;;;;;;6.82;3.58;;;10.60;99.90;;;;;;7334747;32;20145;-60
2022/06/28 01:58:39;;;;;;;10.68;4.37;;;10.60;99.90;;;;;;7338230;32;20197;-59
2022/06/28 02:02:42;;;;;;;7.72;3.50;;;10.60;99.90;;;;;;7345696;32;20250;-60
2022/06/28 02:06:44;;;;;;;7.65;3.90;;;10.60;99.90;;;;;;7344946;32;20570;-60
2022/06/28 02:10:46;;;;;;;10.57;4.10;;;10.60;99.90;;;;;;7342861;32;20190;-59
2022/06/28 02:14:48;;;;;;;7.85;4.20;;;10.60;99.90;;;;;;7342069;32;20103;-60
2022/06/28 02:18:49;;;;;;;13.05;4.68;;;10.60;99.90;;;;;;7347820;32;20221;-60
2022/06/28 02:22:51;;;;;;;7.30;4.43;;;10.60;99.90;;;;;;7345915;32;20198;-59
2022/06/28 02:26:53;;;;;;;7.32;4.62;;;10.60;99.90;;;;;;7347163;32;20726;-60
2022/06/28 02:30:55;;;;;;;13.00;5.05;;;10.60;99.90;;;;;;7340094;32;20099;-61
2022/06/28 02:43:24;;;;;;;11.20;4.75;;;10.60;99.90;;;;;;7345804;32;20098;-62
2022/06/28 02:47:26;;;;;;;12.30;5.43;;;10.60;99.90;;;;;;7341521;32;20190;-61
2022/06/28 02:51:28;;;;;;;12.48;5.00;;;10.50;99.90;;;;;;7340456;32;20558;-60
2022/06/28 02:55:30;;;;;;;12.00;4.80;;;10.60;99.90;;;;;;7342283;32;20216;-60
2022/06/28 02:59:31;;;;;;;18.60;5.15;;;10.60;99.90;;;;;;7335977;32;20129;-60
2022/06/28 03:03:33;;;;;;;11.80;5.43;;;10.60;99.90;;;;;;7342036;32;20182;-59
2022/06/28 03:07:36;;;;;;;7.72;5.18;;;10.50;99.90;;;;;;7341176;32;20112;-59
2022/06/28 03:11:37;;;;;;;15.60;5.80;;;10.60;99.90;;;;;;7346714;32;20107;-59
2022/06/28 03:15:39;;;;;;;7.32;5.55;;;10.50;99.90;;;;;;7348036;32;20344;-59
2022/06/28 03:19:41;;;;;;;9.05;5.80;;;10.50;99.90;;;;;;7343277;32;20488;-59
2022/06/28 03:23:43;;;;;;;14.90;6.50;;;10.50;99.90;;;;;;7343568;32;21301;-59
2022/06/28 03:27:44;;;;;;;7.72;5.03;;;10.50;99.90;;;;;;7337938;32;20272;-59
2022/06/28 03:31:46;;;;;;;9.13;5.47;;;10.60;99.90;;;;;;7343579;32;20328;-59
2022/06/28 03:35:48;;;;;;;9.57;6.60;;;10.70;99.90;;;;;;7342064;32;20129;-60
2022/06/28 03:39:50;;;;;;;9.43;6.72;;;10.70;99.90;;;;;;7342400;32;20104;-59
2022/06/28 03:43:52;;;;;;;9.93;7.45;;;10.80;99.90;;;;;;7338177;32;20214;-59
2022/06/28 03:47:54;;;;;;;14.77;9.57;;;10.90;99.90;;;;;;7346701;32;20102;-60
2022/06/28 03:51:55;;;;;;;13.00;9.30;;;11.00;99.90;;;;;;7342434;32;20123;-60
2022/06/28 03:55:57;;;;;;;14.50;7.90;;;11.00;99.90;;;;;;7338602;32;20121;-60
2022/06/28 04:00:01;;;;;;;12.55;7.30;;;11.10;99.90;;;;;;7341093;32;20139;-60
2022/06/28 04:04:03;;;;;;;14.05;7.25;;;11.00;99.90;;;;;;7339830;32;20095;-60
2022/06/28 04:08:05;;;;;;;11.50;7.82;;;11.00;99.90;;;;;;7350334;32;20479;-60
2022/06/28 04:12:07;;;;;;;11.15;8.00;;;11.10;99.90;;;;;;7342758;32;20212;-60
2022/06/28 04:16:09;;;;;;;12.23;8.32;;;11.10;99.90;;;;;;7340015;32;20178;-60
2022/06/28 04:20:11;;;;;;;12.37;8.10;;;11.20;99.90;;;;;;7341296;32;20366;-60
2022/06/28 04:24:13;;;;;;;12.32;9.52;;;11.40;99.90;;;;;;7341098;32;20526;-60
2022/06/28 04:28:15;;;;;;;15.50;9.70;;;11.50;99.90;;;;;;7340879;32;20494;-62
2022/06/28 04:32:16;;;;;;;11.60;9.88;;;11.70;99.90;;;;;;7339327;32;20275;-60
2022/06/28 04:36:18;;;;;;;13.20;10.90;;;11.90;99.90;;;;;;7342338;32;20122;-61
2022/06/28 04:40:20;;;;;;;11.23;9.05;;;12.20;99.90;;;;;;7335992;32;20103;-61
2022/06/28 04:44:21;;;;;;;12.68;10.15;;;12.70;99.90;;;;;;7343520;32;20546;-61
2022/06/28 04:48:23;;;;;;;12.48;10.45;;;12.90;99.90;;;;;;7337886;32;21936;-66
2022/06/28 04:52:25;;;;;;;12.23;9.30;;;13.30;99.90;;;;;;7343674;32;20125;-66
2022/06/28 04:56:26;;;;;;;12.85;9.18;;;13.60;99.90;;;;;;7342785;32;20219;-64
2022/06/28 05:00:29;;;;;;;10.35;8.05;;;13.90;99.90;;;;;;7342075;32;20194;-66
2022/06/28 05:04:50;;;;;;;11.10;8.65;;;14.20;99.90;;;;;;7342014;32;20100;-64
2022/06/28 05:08:53;;;;;;;10.45;7.68;;;14.50;99.90;;;;;;7340619;32;20529;-66
2022/06/28 05:13:13;;;;;;;10.93;7.22;;;15.00;99.90;;;;;;7344111;32;20113;-67
2022/06/28 05:17:15;;;;;;;9.40;6.87;;;15.50;99.90;;;;;;7340553;32;20118;-65
2022/06/28 05:21:16;;;;;;;11.88;7.35;;;15.80;99.90;;;;;;7340237;32;20285;-65
2022/06/28 05:25:18;;;;;;;8.23;6.68;;;16.10;99.90;;;;;;7343985;32;20260;-63
2022/06/28 05:29:20;;;;;;;7.70;6.28;;;16.20;99.90;;;;;;7344388;32;20110;-63
2022/06/28 05:33:22;;;;;;;8.43;6.00;;;16.00;99.90;;;;;;7335531;32;20130;-64
2022/06/28 05:37:24;;;;;;;7.68;5.85;;;15.70;99.90;;;;;;7346882;32;20098;-64
2022/06/28 05:41:26;;;;;;;8.50;6.15;;;15.60;99.90;;;;;;7345804;32;20188;-66
2022/06/28 05:45:29;;;;;;;11.02;6.65;;;15.40;99.90;;;;;;7351515;32;20175;-63
2022/06/28 05:49:30;;;;;;;12.07;6.40;;;15.40;99.90;;;;;;7349831;32;20099;-64
2022/06/28 05:53:32;;;;;;;7.80;5.60;;;15.30;99.90;;;;;;7349594;32;20198;-63
2022/06/28 05:57:34;;;;;;;9.98;5.57;;;15.40;99.90;;;;;;7346672;32;20122;-62
2022/06/28 06:01:35;;;;;;;8.23;4.57;;;15.40;99.90;;;;;;7348243;32;20096;-67
2022/06/28 06:05:37;;;;;;;8.82;4.68;;;15.40;99.90;;;;;;7347249;32;20206;-64
2022/06/28 06:09:42;;;;;;;5.82;4.25;;;15.60;99.90;;;;;;7336762;32;20218;-65
2022/06/28 06:13:44;;;;;;;11.20;4.60;;;15.60;99.90;;;;;;7339695;32;20092;-64
2022/06/28 06:17:45;;;;;;;7.07;3.78;;;15.70;99.90;;;;;;7344129;32;20642;-63
2022/06/28 06:21:47;;;;;;;5.97;3.83;;;15.80;99.90;;;;;;7345337;32;20198;-63
2022/06/28 06:25:49;;;;;;;7.97;4.30;;;16.10;99.90;;;;;;7348085;32;20222;-63
2022/06/28 06:29:50;;;;;;;10.05;4.32;;;16.20;99.90;;;;;;7343627;32;20126;-64
2022/06/28 06:33:52;;;;;;;7.18;3.40;;;16.20;99.90;;;;;;7345332;32;20110;-62
2022/06/28 06:38:00;;;;;;;8.00;3.00;;;16.40;99.90;;;;;;7340890;32;20096;-63
2022/06/28 06:42:02;;;;;;;6.37;3.37;;;16.40;99.90;;;;;;7345930;32;20122;-62
2022/06/28 06:46:04;;;;;;;7.10;3.53;;;16.60;99.90;;;;;;7336353;32;20173;-64
2022/06/28 06:50:08;;;;;;;4.85;3.30;;;16.70;99.90;;;;;;7339909;32;20095;-64
2022/06/28 06:54:11;;;;;;;6.72;3.03;;;16.70;99.90;;;;;;7344584;32;20104;-64
2022/06/28 06:58:13;;;;;;;5.75;3.12;;;16.80;99.90;;;;;;7342306;32;20122;-64
2022/06/28 07:02:15;;;;;;;8.30;3.92;;;17.00;99.90;;;;;;7343249;32;20205;-65
2022/06/28 07:06:17;;;;;;;5.32;2.87;;;17.10;99.90;;;;;;7341678;32;20170;-64
2022/06/28 07:10:19;;;;;;;4.55;2.75;;;17.10;99.90;;;;;;7341189;32;20492;-63
2022/06/28 07:14:20;;;;;;;8.25;3.67;;;17.20;99.90;;;;;;7338392;32;20740;-64
2022/06/28 07:18:22;;;;;;;7.50;3.10;;;17.40;99.90;;;;;;7340369;32;20103;-64
2022/06/28 07:22:24;;;;;;;9.07;4.12;;;17.50;99.90;;;;;;7343088;32;20400;-66
2022/06/28 07:26:25;;;;;;;6.12;3.47;;;17.60;99.90;;;;;;7340222;32;20532;-64
2022/06/28 07:30:27;;;;;;;7.00;2.90;;;17.50;99.90;;;;;;7337283;32;20544;-64
2022/06/28 07:34:31;;;;;;;7.37;4.22;;;17.70;99.90;;;;;;7341251;32;20130;-65
2022/06/28 07:38:33;;;;;;;8.23;3.30;;;17.70;99.90;;;;;;7337465;32;20599;-64
2022/06/28 07:42:35;;;;;;;6.45;2.97;;;17.80;99.90;;;;;;7337723;32;20121;-65
2022/06/28 07:46:39;;;;;;;5.43;2.75;;;18.00;99.90;;;;;;7342852;32;20267;-64
2022/06/28 07:55:03;;;;;;;6.68;2.10;;;18.00;99.90;;;;;;7338665;32;20530;-65
2022/06/28 07:59:04;;;;;;;8.90;2.78;;;18.00;99.90;;;;;;7339866;32;20114;-65
2022/06/28 08:03:06;;;;;;;4.68;2.20;;;18.10;99.90;;;;;;7333668;32;20197;-63
2022/06/28 08:07:08;;;;;;;9.13;2.67;;;18.40;99.90;;;;;;7336962;32;20107;-63
2022/06/28 08:11:10;;;;;;;7.05;2.30;;;18.50;99.90;;;;;;7335744;32;20692;-62
2022/06/28 08:15:12;;;;;;;12.50;2.87;;;18.60;99.90;;;;;;7334559;32;20208;-63
2022/06/28 08:19:15;;;;;;;6.37;2.10;;;18.70;99.90;;;;;;7331823;32;20171;-63
2022/06/28 08:23:16;;;;;;;6.85;2.42;;;18.90;99.90;;;;;;7340568;32;20361;-63
2022/06/28 08:27:18;;;;;;;7.12;2.80;;;19.20;99.90;;;;;;7337141;32;20225;-63
2022/06/28 08:31:20;;;;;;;5.60;2.20;;;19.50;99.90;;;;;;7337707;32;20140;-65
2022/06/28 08:35:22;;;;;;;6.60;1.58;;;19.60;99.90;;;;;;7339695;32;20178;-63
2022/06/28 08:39:24;;;;;;;4.25;1.87;;;20.10;99.90;;;;;;7337414;32;20125;-65
2022/06/28 08:43:26;;;;;;;4.30;1.70;;;20.40;99.90;;;;;;7339458;32;20139;-64
2022/06/28 08:47:32;;;;;;;4.62;1.40;;;20.70;99.90;;;;;;7332765;32;20593;-64
2022/06/28 08:51:35;;;;;;;3.65;1.73;;;20.90;99.90;;;;;;7338909;32;20162;-64
2022/06/28 08:55:38;;;;;;;4.18;1.40;;;21.20;99.90;;;;;;7329352;32;20246;-65
2022/06/28 08:59:40;;;;;;;5.10;1.87;;;21.40;99.90;;;;;;7335895;32;20103;-65
2022/06/28 09:03:42;;;;;;;5.70;1.50;;;21.80;99.90;;;;;;7333523;32;20221;-65
2022/06/28 09:07:44;;;;;;;9.38;2.15;;;22.00;99.90;;;;;;7338945;32;20247;-65
2022/06/28 09:11:46;;;;;;;4.18;1.60;;;22.30;99.90;;;;;;7345802;32;20175;-65
2022/06/28 09:15:57;;;;;;;3.80;1.30;;;22.40;99.90;;;;;;7341448;32;20249;-66
2022/06/28 09:20:05;;;;;;;5.20;1.45;;;22.90;99.90;;;;;;7344134;32;20173;-67
2022/06/28 09:24:08;;;;;;;2.47;0.90;;;23.10;99.90;;;;;;7343995;32;20197;-65
2022/06/28 09:28:10;;;;;;;4.97;1.40;;;23.00;99.90;;;;;;7345441;32;20159;-65
2022/06/28 09:32:11;;;;;;;8.02;1.58;;;23.30;99.90;;;;;;7342320;32;20130;-65
2022/06/28 09:36:17;;;;;;;4.72;1.30;;;23.30;99.90;;;;;;7344158;32;20475;-63
2022/06/28 09:40:22;;;;;;;5.80;1.20;;;23.20;99.90;;;;;;7345179;32;20118;-61
2022/06/28 09:44:26;;;;;;;4.03;1.10;;;24.10;99.90;;;;;;7345903;32;20129;-63
2022/06/28 09:48:36;;;;;;;6.82;2.22;;;24.70;99.90;;;;;;7344688;32;20297;-66
2022/06/28 09:52:42;;;;;;;3.03;1.05;;;25.20;99.90;;;;;;7345039;32;20770;-65
2022/06/28 09:56:51;;;;;;;3.45;1.15;;;25.10;99.90;;;;;;7342816;32;20170;-62
2022/06/28 10:00:54;;;;;;;3.50;1.23;;;25.20;98.70;;;;;;7343989;32;20185;-65
2022/06/28 10:05:00;;;;;;;3.37;1.27;;;25.60;98.80;;;;;;7345003;32;20486;-65
2022/06/28 10:09:06;;;;;;;3.30;1.13;;;25.80;99.90;;;;;;7345125;32;20095;-65
2022/06/28 10:17:48;;;;;;;6.40;1.50;;;26.30;98.60;;;;;;7343414;32;20182;-65
2022/06/28 10:21:52;;;;;;;3.75;1.23;;;26.20;98.40;;;;;;7339759;32;20593;-67
2022/06/28 10:26:03;;;;;;;5.37;1.40;;;26.40;99.00;;;;;;7337591;32;20315;-66
2022/06/28 10:30:16;;;;;;;5.47;1.40;;;26.30;96.50;;;;;;7337858;32;20479;-65
2022/06/28 10:34:42;;;;;;;3.90;1.15;;;26.70;95.80;;;;;;7340180;32;20252;-65
2022/06/28 10:39:07;;;;;;;7.75;1.50;;;26.80;96.20;;;;;;7336364;32;20202;-65
2022/06/28 10:43:09;;;;;;;4.18;1.20;;;26.60;90.80;;;;;;7334272;32;20125;-65
2022/06/28 10:47:13;;;;;;;4.18;1.05;;;26.70;92.90;;;;;;7337700;32;20497;-65
2022/06/28 10:51:15;;;;;;;4.12;1.70;;;26.00;93.60;;;;;;7332978;32;20261;-65
2022/06/28 10:55:19;;;;;;;6.93;1.60;;;26.20;93.70;;;;;;7332947;32;20162;-65
2022/06/28 10:59:37;;;;;;;5.55;1.62;;;26.10;96.60;;;;;;7337176;32;20157;-66
2022/06/28 11:04:11;;;;;;;5.45;1.40;;;25.60;93.10;;;;;;7342397;32;20550;-65
2022/06/28 11:08:32;;;;;;;3.37;1.40;;;25.90;92.60;;;;;;7333845;32;20100;-64
2022/06/28 11:12:37;;;;;;;4.75;1.52;;;25.90;90.00;;;;;;7339051;32;20099;-65
2022/06/28 11:16:49;;;;;;;4.72;1.98;;;25.90;94.10;;;;;;7340283;32;20259;-66
2022/06/28 11:20:52;;;;;;;5.18;1.80;;;26.00;92.50;;;;;;7339681;32;20256;-65
2022/06/28 11:25:03;;;;;;;7.03;1.40;;;26.00;90.20;;;;;;7331848;32;20500;-65
2022/06/28 11:29:05;;;;;;;5.22;1.48;;;26.00;93.60;;;;;;7338652;32;21792;-62
2022/06/28 11:33:08;;;;;;;2.62;1.48;;;26.10;90.20;;;;;;7330188;32;20191;-60
2022/06/28 11:37:10;;;;;;;5.07;1.70;;;26.10;88.20;;;;;;7337715;32;20198;-59
2022/06/28 11:41:11;;;;;;;5.00;1.50;;;26.00;85.30;;;;;;7335135;32;20104;-60
2022/06/28 11:45:14;;;;;;;8.23;1.40;;;26.00;84.50;;;;;;7336403;32;20120;-59
2022/06/28 11:49:27;;;;;;;2.62;1.23;;;26.00;87.40;;;;;;7335400;32;20226;-60
2022/06/28 11:53:31;;;;;;;4.75;1.30;;;26.10;84.60;;;;;;7332726;32;20216;-61
2022/06/28 11:57:33;;;;;;;3.83;1.37;;;25.80;82.40;;;;;;7336498;32;20214;-59
2022/06/28 12:01:40;;;;;;;4.93;1.42;;;26.20;87.20;;;;;;7337763;32;20163;-60
2022/06/28 12:05:42;;;;;;;2.75;1.15;;;26.50;90.10;;;;;;7335966;32;20100;-60
2022/06/28 12:09:44;;;;;;;4.53;1.12;;;26.40;83.50;;;;;;7330101;32;20129;-59
2022/06/28 12:13:46;;;;;;;5.18;1.30;;;26.40;86.20;;;;;;7338874;32;20223;-60
2022/06/28 12:17:57;;;;;;;3.05;0.85;;;26.70;79.40;;;;;;7337766;32;20127;-60
2022/06/28 12:22:04;;;;;;;3.53;1.50;;;26.60;80.20;;;;;;7336201;32;20274;-63
2022/06/28 12:26:06;;;;;;;4.37;1.30;;;26.70;79.40;;;;;;7339188;32;20780;-63
2022/06/28 12:30:08;;;;;;;3.37;1.00;;;26.70;75.80;;;;;;7334622;32;20881;-63
2022/06/28 12:34:14;;;;;;;6.90;1.52;;;26.60;81.30;;;;;;7334921;32;20423;-63
2022/06/28 12:38:16;;;;;;;4.85;1.25;;;26.30;73.60;;;;;;7336255;32;20172;-64
2022/06/28 12:42:18;;;;;;;3.78;1.40;;;26.20;76.80;;;;;;7333456;32;20347;-63
2022/06/28 12:46:24;;;;;;;6.03;4.13;;;26.30;78.00;;;;;;7337941;32;20107;-63
2022/06/28 12:50:26;;;;;;;5.80;0.90;;;26.70;79.70;;;;;;7339637;32;20347;-64
2022/06/28 12:54:28;;;;;;;3.05;0.70;;;26.50;74.00;;;;;;7335408;32;20220;-63
2022/06/28 12:58:30;;;;;;;4.25;1.00;;;26.60;78.60;;;;;;7334849;32;20249;-63
2022/06/28 13:02:31;;;;;;;3.12;1.00;;;26.60;73.00;;;;;;7340416;32;20182;-65
2022/06/28 13:06:33;;;;;;;2.67;1.00;;;26.70;78.70;;;;;;7346233;32;20099;-65
2022/06/28 13:10:35;;;;;;;4.10;0.90;;;26.70;80.40;;;;;;7343387;32;20104;-65
2022/06/28 13:14:37;;;;;;;5.53;1.50;;;26.30;80.70;;;;;;7345042;32;20214;-62
2022/06/28 13:18:38;;;;;;;3.45;0.90;;;26.20;72.00;;;;;;7335665;32;20213;-62
2022/06/28 13:22:40;;;;;;;2.80;0.93;;;26.30;76.40;;;;;;7335946;32;20099;-62
2022/06/28 13:26:43;;;;;;;5.22;0.88;;;25.70;76.40;;;;;;7337092;32;20524;-64
2022/06/28 13:30:45;;;;;;;4.18;1.02;;;25.50;78.30;;;;;;7341990;32;20546;-63
2022/06/28 13:34:48;;;;;;;4.12;1.20;;;26.10;75.20;;;;;;7340160;32;20213;-64
2022/06/28 13:38:50;;;;;;;2.90;0.90;;;26.80;73.90;;;;;;7340991;32;20127;-63
2022/06/28 13:43:32;;;;;;;4.75;1.05;;;27.10;73.80;;;;;;7340428;32;20633;-63
2022/06/28 13:47:29;;;;;;;3.72;0.70;;;27.30;68.90;;;;;;7342186;32;20259;-63
2022/06/28 13:51:31;;;;;;;5.80;1.23;;;27.30;66.60;;;;;;7348288;32;20460;-63
2022/06/28 13:55:33;;;;;;;2.92;0.90;;;27.40;72.90;;;;;;7347039;32;20283;-64
2022/06/28 13:59:35;;;;;;;2.15;0.77;;;27.80;71.10;;;;;;7347348;32;20246;-64
2022/06/28 14:03:36;;;;;;;2.87;0.70;;;27.20;66.20;;;;;;7345767;32;20229;-64
2022/06/28 14:07:42;;;;;;;3.58;0.60;;;27.10;68.70;;;;;;7340734;32;20259;-64
2022/06/28 14:11:44;;;;;;;3.62;0.60;;;26.90;69.30;;;;;;7342640;32;20171;-64
2022/06/28 14:15:51;;;;;;;2.83;1.00;;;26.60;68.20;;;;;;7347017;32;20110;-62
2022/06/28 14:19:53;;;;;;;2.37;0.73;;;27.00;70.00;;;;;;7338313;32;20095;-63
2022/06/28 14:23:54;;;;;;;1.83;0.77;;;27.30;65.30;;;;;;7343288;32;20218;-63
2022/06/28 14:27:56;;;;;;;2.28;0.68;;;27.30;69.80;;;;;;7348592;32;20102;-64
2022/06/28 14:32:01;;;;;;;4.30;0.80;;;27.80;63.50;;;;;;7345159;32;20118;-64
2022/06/28 14:36:05;;;;;;;1.75;0.70;;;28.40;64.20;;;;;;7345241;32;20125;-64
2022/06/28 14:40:08;;;;;;;4.43;0.80;;;28.30;62.60;;;;;;7344686;32;20107;-64
2022/06/28 14:44:11;;;;;;;4.90;0.93;;;28.20;65.40;;;;;;7347721;32;20134;-64
2022/06/28 14:48:12;;;;;;;1.45;0.50;;;27.70;66.30;;;;;;7345742;32;20123;-65
2022/06/28 14:52:14;;;;;;;3.92;0.80;;;27.30;63.40;;;;;;7351099;32;20557;-65
2022/06/28 14:56:16;;;;;;;1.60;0.60;;;26.80;62.70;;;;;;7343021;32;20171;-63
2022/06/28 15:00:18;;;;;;;6.15;0.90;;;26.30;70.30;;;;;;7343091;32;20103;-65
2022/06/28 15:04:26;;;;;;;2.90;0.73;;;26.30;65.90;;;;;;7347424;32;20662;-64
2022/06/28 15:08:30;;;;;;;4.35;0.80;;;26.10;64.70;;;;;;7341847;32;20115;-65
2022/06/28 15:12:32;;;;;;;3.12;0.52;;;25.90;65.20;;;;;;7347785;32;20203;-65
2022/06/28 15:16:34;;;;;;;3.17;0.60;;;25.90;69.00;;;;;;7348340;32;20203;-64
2022/06/28 15:20:36;;;;;;;4.43;0.90;;;26.20;69.40;;;;;;7346697;32;20230;-64
2022/06/28 15:33:27;;;;;;;2.65;0.80;;;26.10;66.90;;;;;;7346029;32;20186;-63
2022/06/28 15:37:29;;;;;;;1.52;0.73;;;26.00;68.30;;;;;;7344709;32;20318;-64
2022/06/28 15:41:31;;;;;;;3.33;0.70;;;25.80;65.30;;;;;;7345777;32;20611;-63
2022/06/28 15:45:33;;;;;;;1.87;0.65;;;25.50;64.30;;;;;;7351217;32;20565;-64
2022/06/28 15:49:34;;;;;;;3.87;0.80;;;25.10;65.60;;;;;;7340238;32;20193;-63
2022/06/28 15:53:41;;;;;;;2.55;0.60;;;24.70;66.50;;;;;;7347473;32;20096;-64
2022/06/28 15:57:43;;;;;;;1.67;0.68;;;24.60;70.10;;;;;;7342648;32;20234;-64
2022/06/28 16:01:44;;;;;;;3.12;0.80;;;24.60;67.60;;;;;;7345669;32;20099;-64
2022/06/28 16:05:46;;;;;;;1.62;0.60;;;24.80;72.00;;;;;;7340792;32;20561;-64
2022/06/28 16:09:48;;;;;;;3.42;0.75;;;24.60;69.00;;;;;;7343917;32;20780;-65
2022/06/28 16:13:50;;;;;;;2.72;0.80;;;24.80;70.60;;;;;;7343124;32;20277;-65
2022/06/28 16:17:53;;;;;;;1.37;0.57;;;24.60;67.10;;;;;;7336795;32;20190;-63
2022/06/28 16:21:55;;;;;;;4.18;0.90;;;24.40;70.30;;;;;;7336062;32;20590;-64
2022/06/28 16:25:57;;;;;;;4.25;0.90;;;24.50;69.40;;;;;;7338411;32;20592;-66
2022/06/28 16:29:58;;;;;;;3.17;1.10;;;24.60;68.30;;;;;;7344749;32;20123;-66
2022/06/28 16:34:00;;;;;;;2.70;0.80;;;24.60;68.40;;;;;;7336000;32;20130;-66
2022/06/28 16:38:02;;;;;;;1.52;0.50;;;24.50;70.20;;;;;;7349589;32;20225;-65
2022/06/28 16:42:05;;;;;;;4.15;0.60;;;24.60;70.60;;;;;;7343133;32;20183;-65
2022/06/28 16:46:07;;;;;;;1.70;0.82;;;24.60;68.50;;;;;;7341222;32;20490;-61
2022/06/28 16:50:10;;;;;;;2.72;0.80;;;24.50;67.40;;;;;;7343337;32;20210;-62
2022/06/28 16:54:12;;;;;;;1.87;0.60;;;24.10;75.30;;;;;;7336420;32;20730;-62
2022/06/28 16:58:14;;;;;;;2.53;0.55;;;24.00;71.80;;;;;;7343542;32;20167;-60
2022/06/28 17:02:15;;;;;;;2.35;0.82;;;24.10;72.30;;;;;;7341245;32;20668;-64
2022/06/28 17:10:44;;;;;;;3.05;0.80;;;24.10;71.40;;;;;;7339547;32;20989;-64
2022/06/28 17:14:46;;;;;;;3.08;0.60;;;23.90;71.40;;;;;;7338361;32;20634;-64
2022/06/28 17:18:47;;;;;;;4.12;0.65;;;23.80;72.50;;;;;;7337515;32;20124;-64
2022/06/28 17:22:49;;;;;;;3.42;0.70;;;23.80;75.90;;;;;;7335846;32;20190;-66
2022/06/28 17:26:51;;;;;;;1.30;0.62;;;23.70;71.40;;;;;;7339045;32;20177;-66
2022/06/28 17:30:54;;;;;;;2.58;0.75;;;23.60;72.00;;;;;;7343702;32;20749;-65
2022/06/28 17:34:57;;;;;;;0.93;0.45;;;23.80;76.20;;;;;;7346113;32;20178;-61
2022/06/28 17:38:59;;;;;;;2.22;0.68;;;23.60;77.80;;;;;;7336299;32;20202;-60
2022/06/28 17:43:01;;;;;;;2.65;0.50;;;23.60;74.60;;;;;;7344707;32;20270;-61
2022/06/28 17:47:03;;;;;;;2.17;0.80;;;23.50;76.60;;;;;;7344607;32;20311;-59
2022/06/28 17:51:05;;;;;;;2.05;0.77;;;23.40;72.80;;;;;;7347120;32;20302;-63
2022/06/28 17:55:07;;;;;;;3.45;0.80;;;23.30;73.20;;;;;;7348706;32;20356;-64
2022/06/28 17:59:09;;;;;;;1.92;0.60;;;23.40;74.30;;;;;;7344795;32;20453;-61
2022/06/28 18:03:11;;;;;;;3.45;0.60;;;23.20;78.50;;;;;;7343073;32;20271;-64
2022/06/28 18:07:13;;;;;;;3.60;0.80;;;23.10;74.00;;;;;;7341838;32;20321;-63
2022/06/28 18:11:15;;;;;;;3.33;0.80;;;23.00;76.50;;;;;;7345361;32;20159;-64
2022/06/28 18:15:17;;;;;;;2.05;0.43;;;22.90;81.00;;;;;;7349192;32;20167;-63
2022/06/28 18:19:19;;;;;;;2.87;0.60;;;22.90;81.50;;;;;;7345925;32;20099;-64
2022/06/28 18:23:20;;;;;;;2.35;0.80;;;22.80;81.90;;;;;;7347683;32;20114;-63
2022/06/28 18:27:22;;;;;;;2.45;0.60;;;22.70;77.80;;;;;;7348378;32;20166;-64
2022/06/28 18:31:24;;;;;;;3.40;1.65;;;22.80;82.10;;;;;;7338950;32;20174;-64
2022/06/28 18:35:26;;;;;;;4.87;2.90;;;22.60;83.00;;;;;;7342867;32;20122;-63
2022/06/28 18:39:28;;;;;;;7.37;3.40;;;22.60;89.40;;;;;;7341626;32;20104;-64
2022/06/28 18:43:30;;;;;;;1.75;0.70;;;22.40;91.50;;;;;;7345967;32;20174;-63
2022/06/28 18:47:31;;;;;;;7.20;4.68;;;22.40;93.00;;;;;;7344166;32;20168;-63
2022/06/28 18:51:33;;;;;;;15.20;13.57;;;22.20;96.90;;;;;;7342737;32;20256;-64
2022/06/28 18:55:35;;;;;;;2.22;1.10;;;22.10;98.30;;;;;;7344686;32;20099;-64
2022/06/28 18:59:39;;;;;;;4.03;1.90;;;21.90;99.90;;;;;;7339423;32;20126;-64
2022/06/28 19:03:41;;;;;;;3.80;1.90;;;21.60;99.90;;;;;;7341354;32;20119;-64
2022/06/28 19:07:44;;;;;;;2.20;0.80;;;21.30;99.90;;;;;;7338169;32;20103;-63
2022/06/28 19:11:45;;;;;;;8.88;7.07;;;21.10;99.90;;;;;;7342900;32;20103;-63
2022/06/28 19:15:48;;;;;;;5.22;1.80;;;20.90;99.90;;;;;;7341330;32;20112;-65
2022/06/28 19:19:50;;;;;;;5.45;0.77;;;20.70;99.90;;;;;;7344620;32;20205;-65
2022/06/28 19:23:52;;;;;;;6.90;1.00;;;20.40;99.90;;;;;;7343800;32;20296;-65
2022/06/28 19:27:54;;;;;;;8.32;4.03;;;20.20;99.90;;;;;;7341914;32;20763;-64
2022/06/28 19:31:56;;;;;;;7.12;3.42;;;19.90;99.90;;;;;;7342458;32;20172;-64
2022/06/28 19:35:57;;;;;;;6.95;2.45;;;19.60;99.90;;;;;;7345341;32;20126;-63
2022/06/28 19:39:59;;;;;;;5.55;1.00;;;19.40;99.90;;;;;;7338160;32;20405;-68
2022/06/28 19:44:01;;;;;;;2.45;0.98;;;19.10;99.90;;;;;;7332548;32;20308;-63
2022/06/28 19:48:03;;;;;;;4.15;1.20;;;18.90;99.90;;;;;;7346091;32;20178;-63
2022/06/28 19:52:05;;;;;;;7.82;5.45;;;18.70;99.90;;;;;;7341719;32;20134;-65
2022/06/28 19:56:11;;;;;;;4.22;1.10;;;18.60;99.90;;;;;;7344358;32;20235;-66
2022/06/28 20:00:14;;;;;;;3.60;1.00;;;18.30;99.90;;;;;;7340931;32;20226;-67
2022/06/28 20:04:15;;;;;;;4.03;0.90;;;18.10;99.90;;;;;;7338936;32;20552;-64
2022/06/28 20:08:17;;;;;;;8.52;3.47;;;17.90;99.90;;;;;;7346340;32;20106;-65
2022/06/28 20:12:19;;;;;;;6.20;2.62;;;17.80;99.90;;;;;;7343731;32;20225;-66
2022/06/28 20:16:21;;;;;;;1.95;1.00;;;17.60;99.90;;;;;;7339493;32;20198;-65
2022/06/28 20:20:24;;;;;;;8.73;1.42;;;17.50;99.90;;;;;;7347610;32;20645;-64
2022/06/28 20:24:28;;;;;;;7.25;3.85;;;17.30;99.90;;;;;;7337606;32;20449;-64
2022/06/28 20:28:32;;;;;;;3.50;1.15;;;17.20;99.90;;;;;;7340039;32;20377;-66
2022/06/28 20:32:34;;;;;;;4.97;1.12;;;17.10;99.90;;;;;;7344437;32;20107;-65
2022/06/28 20:36:36;;;;;;;5.82;1.50;;;16.90;99.90;;;;;;7347854;32;20140;-64
2022/06/28 20:40:39;;;;;;;5.93;1.35;;;16.90;99.90;;;;;;7339780;32;20123;-64
2022/06/28 20:44:41;;;;;;;4.12;1.30;;;16.80;99.90;;;;;;7343541;32;20261;-64
2022/06/28 20:48:43;;;;;;;2.22;1.08;;;16.80;99.90;;;;;;7339750;32;20204;-63
2022/06/28 20:52:45;;;;;;;4.65;1.20;;;16.70;99.90;;;;;;7344355;32;20161;-63
2022/06/28 20:56:47;;;;;;;5.30;1.45;;;16.70;99.90;;;;;;7340757;32;20341;-64
2022/06/28 21:00:48;;;;;;;5.85;1.45;;;16.70;99.90;;;;;;7344125;32;20095;-63
2022/06/28 21:04:50;;;;;;;3.15;1.20;;;16.70;99.90;;;;;;7341238;32;20208;-65
2022/06/28 21:08:52;;;;;;;4.97;1.30;;;16.60;99.90;;;;;;7339035;32;20567;-65
2022/06/28 21:12:54;;;;;;;3.42;1.60;;;16.60;99.90;;;;;;7341789;32;20199;-64
2022/06/28 21:16:56;;;;;;;3.00;1.10;;;16.50;99.90;;;;;;7341100;32;20123;-64
2022/06/28 21:20:58;;;;;;;5.15;1.70;;;16.50;99.90;;;;;;7346332;32;20734;-65
2022/06/28 21:24:59;;;;;;;5.62;1.62;;;16.50;99.90;;;;;;7341505;32;20535;-65
2022/06/28 21:29:02;;;;;;;4.18;1.20;;;16.60;99.90;;;;;;7341489;32;20803;-65
2022/06/28 21:33:05;;;;;;;3.40;1.05;;;16.60;99.90;;;;;;7343214;32;20099;-63